Portada
METAR-TAF:

METAR-TAF

Aeropuertos :

Sevilla, España

Aeropuerto de Sevilla

latitud: 37-25N, longitud: 005-54W, altitud: 34 m

Observación

El informe se hizo hace 36 minutos, a las 04:00 UTC
Viento 6 kt del sur-suroeste, variando entre sur y oeste-suroeste
Temperatura 19°C
Humedad 68%
Presión 1012 hPa
Visibilidad 10 km o más
sin nubes por debajo de 1500 m y sin presencia de cumulonimbus.

METAR: LEZL 210400Z 21006KT 170V240 CAVOK 19/13 Q1012 NOSIG

Hora: 06:36 (04:36 UTC)

Pronóstico

El informe se hizo hace 2 horas y 36 minutos, a las 02:00 UTC
Pronóstico válido del 21 a las 03 UTC al 22 a las 03 UTC
Viento 6 kt del suroeste
Visibilidad 10 km o más
sin nubes por debajo de 1500 m y sin presencia de cumulonimbus.

TAF: LEZL 210200Z 2103/2203 23006KT CAVOK TX31/2115Z TN18/2106Z

Observaciones y pronósticos meteorológicos de más de 4000 aeropuertos (mensajes METAR y TAF).

Los puntos amarillos y rojos representan las estaciones disponibles.

Ponga el ratón en el punto deseado para ver el nombre de la estación.

Haga clic para ver las observaciones y los pronósticos meteorológicos.

Para cambiar el mapa : haga clic en los botones verdes con una cruz de color negro para hacer un zoom, en el botón verde con un guión para alejar o en las flechas verdes para mapas adyacentes.


METAR-TAF: